sensor_id;sensor_type;location;lat;lon;timestamp;P1;durP1;ratioP1;P2;durP2;ratioP2
65279;SDS011;51878;55.748;48.742;2022-10-28T00:01:03;2.95;;;2.30;;
65279;SDS011;51878;55.748;48.742;2022-10-28T00:03:31;3.38;;;2.08;;
65279;SDS011;51878;55.748;48.742;2022-10-28T00:06:06;4.05;;;2.10;;
65279;SDS011;51878;55.748;48.742;2022-10-28T00:08:35;2.70;;;2.28;;
65279;SDS011;51878;55.748;48.742;2022-10-28T00:11:03;3.47;;;2.20;;
65279;SDS011;51878;55.748;48.742;2022-10-28T00:13:39;6.13;;;2.38;;
65279;SDS011;51878;55.748;48.742;2022-10-28T00:16:09;2.55;;;2.22;;
65279;SDS011;51878;55.748;48.742;2022-10-28T00:18:37;2.75;;;2.40;;
65279;SDS011;51878;55.748;48.742;2022-10-28T00:21:05;4.50;;;2.65;;
65279;SDS011;51878;55.748;48.742;2022-10-28T00:23:35;5.95;;;2.55;;
65279;SDS011;51878;55.748;48.742;2022-10-28T00:28:34;2.80;;;2.40;;
65279;SDS011;51878;55.748;48.742;2022-10-28T00:31:02;4.65;;;2.25;;
65279;SDS011;51878;55.748;48.742;2022-10-28T00:33:31;3.45;;;2.33;;
65279;SDS011;51878;55.748;48.742;2022-10-28T00:38:46;3.55;;;2.40;;
65279;SDS011;51878;55.748;48.742;2022-10-28T00:41:16;3.05;;;2.75;;
65279;SDS011;51878;55.748;48.742;2022-10-28T00:43:52;5.88;;;2.58;;
65279;SDS011;51878;55.748;48.742;2022-10-28T00:46:36;2.90;;;2.33;;
65279;SDS011;51878;55.748;48.742;2022-10-28T00:49:15;3.33;;;2.30;;
65279;SDS011;51878;55.748;48.742;2022-10-28T00:51:47;4.78;;;2.60;;
65279;SDS011;51878;55.748;48.742;2022-10-28T00:54:18;3.17;;;2.30;;
65279;SDS011;51878;55.748;48.742;2022-10-28T00:56:48;7.38;;;2.53;;
65279;SDS011;51878;55.748;48.742;2022-10-28T00:59:22;5.75;;;2.42;;
65279;SDS011;51878;55.748;48.742;2022-10-28T01:01:52;2.72;;;2.25;;
65279;SDS011;51878;55.748;48.742;2022-10-28T01:04:20;5.35;;;2.70;;
65279;SDS011;51878;55.748;48.742;2022-10-28T01:06:47;4.63;;;2.40;;
65279;SDS011;51878;55.748;48.742;2022-10-28T01:09:16;2.50;;;2.17;;
65279;SDS011;51878;55.748;48.742;2022-10-28T01:17:31;4.50;;;2.30;;
65279;SDS011;51878;55.748;48.742;2022-10-28T01:22:58;5.07;;;2.22;;
65279;SDS011;51878;55.748;48.742;2022-10-28T01:39:13;3.25;;;2.35;;
65279;SDS011;51878;55.748;48.742;2022-10-28T01:44:20;4.20;;;2.25;;
65279;SDS011;51878;55.748;48.742;2022-10-28T01:47:13;3.50;;;2.05;;
65279;SDS011;51878;55.748;48.742;2022-10-28T01:49:47;2.72;;;2.17;;
65279;SDS011;51878;55.748;48.742;2022-10-28T01:52:15;4.15;;;2.30;;
65279;SDS011;51878;55.748;48.742;2022-10-28T01:54:47;3.13;;;2.00;;
65279;SDS011;51878;55.748;48.742;2022-10-28T01:57:19;4.93;;;2.00;;
65279;SDS011;51878;55.748;48.742;2022-10-28T01:59:50;3.10;;;2.42;;
65279;SDS011;51878;55.748;48.742;2022-10-28T02:02:18;3.42;;;2.08;;
65279;SDS011;51878;55.748;48.742;2022-10-28T02:04:45;3.58;;;2.17;;
65279;SDS011;51878;55.748;48.742;2022-10-28T02:07:12;5.43;;;2.03;;
65279;SDS011;51878;55.748;48.742;2022-10-28T02:12:32;5.53;;;2.40;;
65279;SDS011;51878;55.748;48.742;2022-10-28T02:15:44;4.57;;;2.38;;
65279;SDS011;51878;55.748;48.742;2022-10-28T02:18:26;3.22;;;2.03;;
65279;SDS011;51878;55.748;48.742;2022-10-28T02:21:10;3.67;;;2.85;;
65279;SDS011;51878;55.748;48.742;2022-10-28T02:23:50;4.55;;;2.05;;
65279;SDS011;51878;55.748;48.742;2022-10-28T02:28:56;2.50;;;1.92;;
65279;SDS011;51878;55.748;48.742;2022-10-28T02:34:19;3.78;;;2.38;;
65279;SDS011;51878;55.748;48.742;2022-10-28T02:36:50;4.07;;;2.20;;
65279;SDS011;51878;55.748;48.742;2022-10-28T02:39:22;6.40;;;2.28;;
65279;SDS011;51878;55.748;48.742;2022-10-28T02:41:57;3.20;;;2.28;;
65279;SDS011;51878;55.748;48.742;2022-10-28T02:44:37;5.57;;;2.60;;
65279;SDS011;51878;55.748;48.742;2022-10-28T02:47:09;2.55;;;2.15;;
65279;SDS011;51878;55.748;48.742;2022-10-28T02:49:42;4.05;;;2.67;;
65279;SDS011;51878;55.748;48.742;2022-10-28T02:52:13;2.67;;;1.95;;
65279;SDS011;51878;55.748;48.742;2022-10-28T02:54:44;3.90;;;2.40;;
65279;SDS011;51878;55.748;48.742;2022-10-28T02:57:16;2.75;;;2.13;;
65279;SDS011;51878;55.748;48.742;2022-10-28T02:59:53;2.28;;;1.95;;
65279;SDS011;51878;55.748;48.742;2022-10-28T03:02:41;8.07;;;2.60;;
65279;SDS011;51878;55.748;48.742;2022-10-28T03:05:08;2.85;;;2.17;;
65279;SDS011;51878;55.748;48.742;2022-10-28T03:07:35;8.73;;;2.45;;
65279;SDS011;51878;55.748;48.742;2022-10-28T03:10:03;3.65;;;2.30;;
65279;SDS011;51878;55.748;48.742;2022-10-28T03:12:30;4.72;;;2.60;;
65279;SDS011;51878;55.748;48.742;2022-10-28T03:14:57;4.10;;;2.30;;
65279;SDS011;51878;55.748;48.742;2022-10-28T03:17:24;2.83;;;2.00;;
65279;SDS011;51878;55.748;48.742;2022-10-28T03:19:51;6.15;;;2.55;;
65279;SDS011;51878;55.748;48.742;2022-10-28T03:22:18;3.00;;;1.95;;
65279;SDS011;51878;55.748;48.742;2022-10-28T03:24:45;3.58;;;2.58;;
65279;SDS011;51878;55.748;48.742;2022-10-28T03:27:12;3.00;;;2.35;;
65279;SDS011;51878;55.748;48.742;2022-10-28T03:29:39;3.88;;;2.17;;
65279;SDS011;51878;55.748;48.742;2022-10-28T03:32:08;2.80;;;2.08;;
65279;SDS011;51878;55.748;48.742;2022-10-28T03:34:35;4.32;;;2.17;;
65279;SDS011;51878;55.748;48.742;2022-10-28T03:37:02;2.92;;;2.10;;
65279;SDS011;51878;55.748;48.742;2022-10-28T03:39:29;3.10;;;2.38;;
65279;SDS011;51878;55.748;48.742;2022-10-28T03:41:56;5.10;;;2.40;;
65279;SDS011;51878;55.748;48.742;2022-10-28T03:44:23;2.80;;;1.95;;
65279;SDS011;51878;55.748;48.742;2022-10-28T03:46:50;2.40;;;2.17;;
65279;SDS011;51878;55.748;48.742;2022-10-28T03:49:17;3.88;;;1.80;;
65279;SDS011;51878;55.748;48.742;2022-10-28T03:51:44;3.83;;;2.35;;
65279;SDS011;51878;55.748;48.742;2022-10-28T03:54:11;2.38;;;2.17;;
65279;SDS011;51878;55.748;48.742;2022-10-28T03:56:38;2.90;;;2.15;;
65279;SDS011;51878;55.748;48.742;2022-10-28T03:59:09;2.90;;;2.30;;
65279;SDS011;51878;55.748;48.742;2022-10-28T04:01:36;2.97;;;2.10;;
65279;SDS011;51878;55.748;48.742;2022-10-28T04:04:03;3.25;;;2.25;;
65279;SDS011;51878;55.748;48.742;2022-10-28T04:06:30;2.97;;;2.10;;
65279;SDS011;51878;55.748;48.742;2022-10-28T04:08:57;3.35;;;2.25;;
65279;SDS011;51878;55.748;48.742;2022-10-28T04:11:24;2.45;;;1.80;;
65279;SDS011;51878;55.748;48.742;2022-10-28T04:13:51;2.78;;;2.30;;
65279;SDS011;51878;55.748;48.742;2022-10-28T04:16:18;2.83;;;2.28;;
65279;SDS011;51878;55.748;48.742;2022-10-28T04:18:45;4.68;;;2.47;;
65279;SDS011;51878;55.748;48.742;2022-10-28T04:21:13;3.95;;;2.20;;
65279;SDS011;51878;55.748;48.742;2022-10-28T04:23:40;2.95;;;2.20;;
65279;SDS011;51878;55.748;48.742;2022-10-28T04:26:07;3.80;;;2.30;;
65279;SDS011;51878;55.748;48.742;2022-10-28T04:28:34;3.80;;;2.25;;
65279;SDS011;51878;55.748;48.742;2022-10-28T04:31:01;3.83;;;2.30;;
65279;SDS011;51878;55.748;48.742;2022-10-28T04:33:28;2.47;;;2.00;;
65279;SDS011;51878;55.748;48.742;2022-10-28T04:35:55;3.55;;;2.00;;
65279;SDS011;51878;55.748;48.742;2022-10-28T04:38:22;2.65;;;2.20;;
65279;SDS011;51878;55.748;48.742;2022-10-28T04:40:50;3.38;;;2.15;;
65279;SDS011;51878;55.748;48.742;2022-10-28T04:43:17;3.17;;;2.00;;
65279;SDS011;51878;55.748;48.742;2022-10-28T04:45:44;2.90;;;2.28;;
65279;SDS011;51878;55.748;48.742;2022-10-28T04:48:12;3.22;;;2.20;;
65279;SDS011;51878;55.748;48.742;2022-10-28T04:50:41;2.67;;;2.00;;
65279;SDS011;51878;55.748;48.742;2022-10-28T04:53:08;2.20;;;1.95;;
65279;SDS011;51878;55.748;48.742;2022-10-28T04:55:37;3.72;;;2.55;;
65279;SDS011;51878;55.748;48.742;2022-10-28T04:58:04;2.60;;;1.90;;
65279;SDS011;51878;55.748;48.742;2022-10-28T05:00:31;5.68;;;2.17;;
65279;SDS011;51878;55.748;48.742;2022-10-28T05:03:02;6.00;;;2.08;;
65279;SDS011;51878;55.748;48.742;2022-10-28T05:05:29;3.28;;;2.33;;
65279;SDS011;51878;55.748;48.742;2022-10-28T05:07:56;5.45;;;2.53;;
65279;SDS011;51878;55.748;48.742;2022-10-28T05:10:23;3.05;;;2.15;;
65279;SDS011;51878;55.748;48.742;2022-10-28T05:12:51;2.03;;;1.80;;
65279;SDS011;51878;55.748;48.742;2022-10-28T05:15:18;2.55;;;1.90;;
65279;SDS011;51878;55.748;48.742;2022-10-28T05:17:45;2.13;;;1.90;;
65279;SDS011;51878;55.748;48.742;2022-10-28T05:20:14;2.75;;;2.00;;
65279;SDS011;51878;55.748;48.742;2022-10-28T05:22:46;2.55;;;1.70;;
65279;SDS011;51878;55.748;48.742;2022-10-28T05:25:19;3.10;;;1.92;;
65279;SDS011;51878;55.748;48.742;2022-10-28T05:27:47;3.03;;;2.10;;
65279;SDS011;51878;55.748;48.742;2022-10-28T05:30:14;2.33;;;1.50;;
65279;SDS011;51878;55.748;48.742;2022-10-28T05:32:41;3.35;;;1.80;;
65279;SDS011;51878;55.748;48.742;2022-10-28T05:35:08;1.90;;;1.50;;
65279;SDS011;51878;55.748;48.742;2022-10-28T05:37:36;2.63;;;1.52;;
65279;SDS011;51878;55.748;48.742;2022-10-28T05:40:03;3.17;;;1.63;;
65279;SDS011;51878;55.748;48.742;2022-10-28T05:42:30;4.43;;;2.08;;
65279;SDS011;51878;55.748;48.742;2022-10-28T05:44:57;3.05;;;1.85;;
65279;SDS011;51878;55.748;48.742;2022-10-28T05:47:24;2.85;;;1.90;;
65279;SDS011;51878;55.748;48.742;2022-10-28T05:49:51;1.83;;;1.40;;
65279;SDS011;51878;55.748;48.742;2022-10-28T05:52:18;3.80;;;1.73;;
65279;SDS011;51878;55.748;48.742;2022-10-28T05:54:45;2.20;;;1.55;;
65279;SDS011;51878;55.748;48.742;2022-10-28T05:57:12;4.63;;;1.65;;
65279;SDS011;51878;55.748;48.742;2022-10-28T05:59:40;2.80;;;1.50;;
65279;SDS011;51878;55.748;48.742;2022-10-28T06:02:12;2.15;;;1.80;;
65279;SDS011;51878;55.748;48.742;2022-10-28T06:04:40;3.58;;;1.77;;
65279;SDS011;51878;55.748;48.742;2022-10-28T06:07:08;3.58;;;1.70;;
65279;SDS011;51878;55.748;48.742;2022-10-28T06:09:35;10.50;;;2.63;;
65279;SDS011;51878;55.748;48.742;2022-10-28T06:12:02;3.88;;;1.63;;
65279;SDS011;51878;55.748;48.742;2022-10-28T06:14:30;3.80;;;2.03;;
65279;SDS011;51878;55.748;48.742;2022-10-28T06:16:57;3.40;;;2.40;;
65279;SDS011;51878;55.748;48.742;2022-10-28T06:19:24;3.17;;;1.50;;
65279;SDS011;51878;55.748;48.742;2022-10-28T06:21:51;2.90;;;1.50;;
65279;SDS011;51878;55.748;48.742;2022-10-28T06:24:18;1.73;;;1.58;;
65279;SDS011;51878;55.748;48.742;2022-10-28T06:26:45;6.55;;;1.95;;
65279;SDS011;51878;55.748;48.742;2022-10-28T06:29:13;27.85;;;2.78;;
65279;SDS011;51878;55.748;48.742;2022-10-28T06:31:40;2.95;;;1.48;;
65279;SDS011;51878;55.748;48.742;2022-10-28T06:34:08;5.57;;;2.78;;
65279;SDS011;51878;55.748;48.742;2022-10-28T06:36:36;2.80;;;1.85;;
65279;SDS011;51878;55.748;48.742;2022-10-28T06:39:04;4.15;;;1.92;;
65279;SDS011;51878;55.748;48.742;2022-10-28T06:41:31;2.33;;;1.73;;
65279;SDS011;51878;55.748;48.742;2022-10-28T06:43:58;4.95;;;1.60;;
65279;SDS011;51878;55.748;48.742;2022-10-28T06:46:26;3.90;;;2.13;;
65279;SDS011;51878;55.748;48.742;2022-10-28T06:48:53;4.53;;;1.70;;
65279;SDS011;51878;55.748;48.742;2022-10-28T06:51:21;2.78;;;1.80;;
65279;SDS011;51878;55.748;48.742;2022-10-28T06:53:49;1.85;;;1.70;;
65279;SDS011;51878;55.748;48.742;2022-10-28T06:56:17;2.05;;;1.85;;
65279;SDS011;51878;55.748;48.742;2022-10-28T06:58:48;4.40;;;2.35;;
65279;SDS011;51878;55.748;48.742;2022-10-28T07:01:16;2.15;;;1.90;;
65279;SDS011;51878;55.748;48.742;2022-10-28T07:03:43;2.05;;;1.85;;
65279;SDS011;51878;55.748;48.742;2022-10-28T07:06:11;2.17;;;1.98;;
65279;SDS011;51878;55.748;48.742;2022-10-28T07:08:39;3.70;;;1.90;;
65279;SDS011;51878;55.748;48.742;2022-10-28T07:11:06;2.13;;;1.83;;
65279;SDS011;51878;55.748;48.742;2022-10-28T07:13:34;6.80;;;2.00;;
65279;SDS011;51878;55.748;48.742;2022-10-28T07:16:01;3.67;;;2.50;;
65279;SDS011;51878;55.748;48.742;2022-10-28T07:18:28;2.20;;;2.00;;
65279;SDS011;51878;55.748;48.742;2022-10-28T07:20:59;2.55;;;2.30;;
65279;SDS011;51878;55.748;48.742;2022-10-28T07:23:27;2.58;;;2.17;;
65279;SDS011;51878;55.748;48.742;2022-10-28T07:25:57;2.65;;;1.90;;
65279;SDS011;51878;55.748;48.742;2022-10-28T07:28:25;2.67;;;2.17;;
65279;SDS011;51878;55.748;48.742;2022-10-28T07:30:53;6.30;;;2.92;;
65279;SDS011;51878;55.748;48.742;2022-10-28T07:33:20;2.97;;;1.70;;
65279;SDS011;51878;55.748;48.742;2022-10-28T07:35:47;2.22;;;1.92;;
65279;SDS011;51878;55.748;48.742;2022-10-28T07:38:14;3.53;;;1.80;;
65279;SDS011;51878;55.748;48.742;2022-10-28T07:40:41;1.55;;;1.45;;
65279;SDS011;51878;55.748;48.742;2022-10-28T07:43:08;9.10;;;4.53;;
65279;SDS011;51878;55.748;48.742;2022-10-28T07:45:35;2.60;;;1.30;;
65279;SDS011;51878;55.748;48.742;2022-10-28T07:48:03;4.50;;;1.80;;
65279;SDS011;51878;55.748;48.742;2022-10-28T07:50:30;1.60;;;1.50;;
65279;SDS011;51878;55.748;48.742;2022-10-28T07:52:58;3.03;;;2.03;;
65279;SDS011;51878;55.748;48.742;2022-10-28T07:55:25;2.15;;;1.30;;
65279;SDS011;51878;55.748;48.742;2022-10-28T07:57:52;1.52;;;1.17;;
65279;SDS011;51878;55.748;48.742;2022-10-28T08:00:20;1.30;;;1.20;;
65279;SDS011;51878;55.748;48.742;2022-10-28T08:02:47;2.10;;;1.33;;
65279;SDS011;51878;55.748;48.742;2022-10-28T08:05:14;6.88;;;2.22;;
65279;SDS011;51878;55.748;48.742;2022-10-28T08:07:41;2.17;;;1.38;;
65279;SDS011;51878;55.748;48.742;2022-10-28T08:10:08;1.40;;;1.30;;
65279;SDS011;51878;55.748;48.742;2022-10-28T08:12:35;1.00;;;1.00;;
65279;SDS011;51878;55.748;48.742;2022-10-28T08:15:03;1.25;;;1.15;;
65279;SDS011;51878;55.748;48.742;2022-10-28T08:17:30;1.77;;;1.25;;
65279;SDS011;51878;55.748;48.742;2022-10-28T08:19:57;1.00;;;1.00;;
65279;SDS011;51878;55.748;48.742;2022-10-28T08:22:24;0.90;;;0.90;;
65279;SDS011;51878;55.748;48.742;2022-10-28T08:24:52;6.03;;;1.30;;
65279;SDS011;51878;55.748;48.742;2022-10-28T08:27:19;1.42;;;1.30;;
65279;SDS011;51878;55.748;48.742;2022-10-28T08:29:46;3.50;;;1.40;;
65279;SDS011;51878;55.748;48.742;2022-10-28T08:32:13;1.30;;;1.20;;
65279;SDS011;51878;55.748;48.742;2022-10-28T08:34:40;1.40;;;1.30;;
65279;SDS011;51878;55.748;48.742;2022-10-28T08:37:08;1.40;;;1.30;;
65279;SDS011;51878;55.748;48.742;2022-10-28T08:39:35;2.20;;;1.20;;
65279;SDS011;51878;55.748;48.742;2022-10-28T08:42:26;2.55;;;1.20;;
65279;SDS011;51878;55.748;48.742;2022-10-28T08:50:55;1.23;;;1.13;;
65279;SDS011;51878;55.748;48.742;2022-10-28T08:53:52;1.05;;;1.05;;
65279;SDS011;51878;55.748;48.742;2022-10-28T08:56:30;1.20;;;1.20;;
65279;SDS011;51878;55.748;48.742;2022-10-28T08:59:02;1.48;;;1.27;;
65279;SDS011;51878;55.748;48.742;2022-10-28T09:01:44;4.60;;;1.60;;
65279;SDS011;51878;55.748;48.742;2022-10-28T09:04:25;1.40;;;1.30;;
65279;SDS011;51878;55.748;48.742;2022-10-28T09:06:53;1.80;;;1.52;;
65279;SDS011;51878;55.748;48.742;2022-10-28T09:09:21;2.00;;;1.20;;
65279;SDS011;51878;55.748;48.742;2022-10-28T09:11:55;1.60;;;1.50;;
65279;SDS011;51878;55.748;48.742;2022-10-28T09:15:01;1.60;;;1.50;;
65279;SDS011;51878;55.748;48.742;2022-10-28T09:18:01;2.10;;;1.42;;
65279;SDS011;51878;55.748;48.742;2022-10-28T09:20:55;1.63;;;1.52;;
65279;SDS011;51878;55.748;48.742;2022-10-28T09:23:27;7.32;;;1.85;;
65279;SDS011;51878;55.748;48.742;2022-10-28T09:31:23;1.60;;;1.50;;
65279;SDS011;51878;55.748;48.742;2022-10-28T09:40:18;2.03;;;1.85;;
65279;SDS011;51878;55.748;48.742;2022-10-28T09:45:42;4.35;;;1.95;;
65279;SDS011;51878;55.748;48.742;2022-10-28T09:48:14;5.60;;;1.73;;
65279;SDS011;51878;55.748;48.742;2022-10-28T09:50:50;3.53;;;1.52;;
65279;SDS011;51878;55.748;48.742;2022-10-28T09:53:25;1.70;;;1.60;;
65279;SDS011;51878;55.748;48.742;2022-10-28T09:56:02;1.65;;;1.55;;
65279;SDS011;51878;55.748;48.742;2022-10-28T09:58:30;4.57;;;1.52;;
65279;SDS011;51878;55.748;48.742;2022-10-28T10:00:59;1.50;;;1.40;;
65279;SDS011;51878;55.748;48.742;2022-10-28T10:03:28;1.67;;;1.40;;
65279;SDS011;51878;55.748;48.742;2022-10-28T10:06:11;2.92;;;1.30;;
65279;SDS011;51878;55.748;48.742;2022-10-28T10:08:39;1.50;;;1.40;;
65279;SDS011;51878;55.748;48.742;2022-10-28T10:11:19;1.40;;;1.30;;
65279;SDS011;51878;55.748;48.742;2022-10-28T10:13:54;1.50;;;1.40;;
65279;SDS011;51878;55.748;48.742;2022-10-28T10:19:12;1.30;;;1.20;;
65279;SDS011;51878;55.748;48.742;2022-10-28T10:24:28;1.17;;;1.17;;
65279;SDS011;51878;55.748;48.742;2022-10-28T10:27:11;1.25;;;1.15;;
65279;SDS011;51878;55.748;48.742;2022-10-28T10:29:43;1.10;;;1.10;;
65279;SDS011;51878;55.748;48.742;2022-10-28T10:34:53;2.45;;;1.40;;
65279;SDS011;51878;55.748;48.742;2022-10-28T10:37:31;2.08;;;1.33;;
65279;SDS011;51878;55.748;48.742;2022-10-28T10:40:03;0.98;;;0.98;;
65279;SDS011;51878;55.748;48.742;2022-10-28T10:42:33;1.13;;;1.13;;
65279;SDS011;51878;55.748;48.742;2022-10-28T10:45:37;1.10;;;1.00;;
65279;SDS011;51878;55.748;48.742;2022-10-28T10:48:13;1.33;;;1.17;;
65279;SDS011;51878;55.748;48.742;2022-10-28T10:50:41;1.42;;;1.30;;
65279;SDS011;51878;55.748;48.742;2022-10-28T10:53:22;2.45;;;1.70;;
65279;SDS011;51878;55.748;48.742;2022-10-28T10:55:57;1.45;;;1.30;;
65279;SDS011;51878;55.748;48.742;2022-10-28T10:58:29;1.30;;;1.20;;
65279;SDS011;51878;55.748;48.742;2022-10-28T11:01:00;1.70;;;1.60;;
65279;SDS011;51878;55.748;48.742;2022-10-28T11:03:45;1.50;;;1.38;;
65279;SDS011;51878;55.748;48.742;2022-10-28T11:06:58;1.45;;;1.35;;
65279;SDS011;51878;55.748;48.742;2022-10-28T11:11:59;3.33;;;1.70;;
65279;SDS011;51878;55.748;48.742;2022-10-28T11:14:27;1.60;;;1.50;;
65279;SDS011;51878;55.748;48.742;2022-10-28T11:17:01;1.77;;;1.58;;
65279;SDS011;51878;55.748;48.742;2022-10-28T11:19:33;1.88;;;1.42;;
65279;SDS011;51878;55.748;48.742;2022-10-28T11:22:10;3.22;;;1.58;;
65279;SDS011;51878;55.748;48.742;2022-10-28T11:30:15;2.65;;;1.50;;
65279;SDS011;51878;55.748;48.742;2022-10-28T11:35:29;1.67;;;1.40;;
65279;SDS011;51878;55.748;48.742;2022-10-28T11:38:15;1.45;;;1.35;;
65279;SDS011;51878;55.748;48.742;2022-10-28T11:41:05;3.88;;;1.45;;
65279;SDS011;51878;55.748;48.742;2022-10-28T11:49:05;1.48;;;1.38;;
65279;SDS011;51878;55.748;48.742;2022-10-28T11:51:54;1.42;;;1.33;;
65279;SDS011;51878;55.748;48.742;2022-10-28T11:57:49;1.42;;;1.33;;
65279;SDS011;51878;55.748;48.742;2022-10-28T12:03:14;1.40;;;1.30;;
65279;SDS011;51878;55.748;48.742;2022-10-28T12:08:55;1.83;;;1.70;;
65279;SDS011;51878;55.748;48.742;2022-10-28T12:19:21;1.50;;;1.40;;
65279;SDS011;51878;55.748;48.742;2022-10-28T12:22:04;1.60;;;1.50;;
65279;SDS011;51878;55.748;48.742;2022-10-28T12:24:38;3.05;;;1.50;;
65279;SDS011;51878;55.748;48.742;2022-10-28T12:27:19;1.73;;;1.60;;
65279;SDS011;51878;55.748;48.742;2022-10-28T12:30:15;1.70;;;1.60;;
65279;SDS011;51878;55.748;48.742;2022-10-28T12:38:53;1.63;;;1.52;;
65279;SDS011;51878;55.748;48.742;2022-10-28T12:41:25;1.80;;;1.60;;
65279;SDS011;51878;55.748;48.742;2022-10-28T12:46:43;7.15;;;2.10;;
65279;SDS011;51878;55.748;48.742;2022-10-28T13:00:43;1.80;;;1.70;;
65279;SDS011;51878;55.748;48.742;2022-10-28T13:03:14;1.90;;;1.70;;
65279;SDS011;51878;55.748;48.742;2022-10-28T13:05:46;3.55;;;2.22;;
65279;SDS011;51878;55.748;48.742;2022-10-28T13:08:21;2.22;;;1.88;;
65279;SDS011;51878;55.748;48.742;2022-10-28T13:22:18;12.00;;;1.70;;
65279;SDS011;51878;55.748;48.742;2022-10-28T13:29:59;3.70;;;1.67;;
65279;SDS011;51878;55.748;48.742;2022-10-28T13:32:32;3.35;;;2.00;;
65279;SDS011;51878;55.748;48.742;2022-10-28T13:35:11;6.63;;;2.05;;
65279;SDS011;51878;55.748;48.742;2022-10-28T13:37:51;2.78;;;2.20;;
65279;SDS011;51878;55.748;48.742;2022-10-28T13:42:56;4.53;;;2.30;;
65279;SDS011;51878;55.748;48.742;2022-10-28T13:45:44;2.67;;;2.47;;
65279;SDS011;51878;55.748;48.742;2022-10-28T13:56:27;6.32;;;3.47;;
65279;SDS011;51878;55.748;48.742;2022-10-28T13:59:00;4.50;;;3.53;;
65279;SDS011;51878;55.748;48.742;2022-10-28T14:07:01;4.55;;;3.92;;
65279;SDS011;51878;55.748;48.742;2022-10-28T14:09:33;4.82;;;3.78;;
65279;SDS011;51878;55.748;48.742;2022-10-28T14:12:13;7.05;;;4.80;;
65279;SDS011;51878;55.748;48.742;2022-10-28T14:14:57;8.13;;;4.43;;
65279;SDS011;51878;55.748;48.742;2022-10-28T14:17:38;8.80;;;4.40;;
65279;SDS011;51878;55.748;48.742;2022-10-28T14:20:24;6.18;;;4.88;;
65279;SDS011;51878;55.748;48.742;2022-10-28T14:44:28;7.25;;;4.47;;
65279;SDS011;51878;55.748;48.742;2022-10-28T14:52:47;13.23;;;4.10;;
65279;SDS011;51878;55.748;48.742;2022-10-28T14:55:19;5.10;;;4.22;;
65279;SDS011;51878;55.748;48.742;2022-10-28T14:57:49;6.30;;;4.53;;
65279;SDS011;51878;55.748;48.742;2022-10-28T15:00:18;9.10;;;4.88;;
65279;SDS011;51878;55.748;48.742;2022-10-28T15:02:47;8.88;;;4.60;;
65279;SDS011;51878;55.748;48.742;2022-10-28T15:05:15;6.97;;;5.35;;
65279;SDS011;51878;55.748;48.742;2022-10-28T15:07:46;6.68;;;5.15;;
65279;SDS011;51878;55.748;48.742;2022-10-28T15:12:44;8.95;;;6.43;;
65279;SDS011;51878;55.748;48.742;2022-10-28T15:15:18;7.90;;;6.65;;
65279;SDS011;51878;55.748;48.742;2022-10-28T15:17:57;8.40;;;6.65;;
65279;SDS011;51878;55.748;48.742;2022-10-28T15:20:31;7.43;;;6.38;;
65279;SDS011;51878;55.748;48.742;2022-10-28T15:23:14;9.10;;;6.82;;
65279;SDS011;51878;55.748;48.742;2022-10-28T15:28:51;8.35;;;6.53;;
65279;SDS011;51878;55.748;48.742;2022-10-28T15:31:18;12.27;;;8.48;;
65279;SDS011;51878;55.748;48.742;2022-10-28T15:33:45;10.30;;;6.45;;
65279;SDS011;51878;55.748;48.742;2022-10-28T15:38:44;12.98;;;7.18;;
65279;SDS011;51878;55.748;48.742;2022-10-28T15:43:59;8.65;;;6.43;;
65279;SDS011;51878;55.748;48.742;2022-10-28T15:46:27;10.27;;;6.60;;
65279;SDS011;51878;55.748;48.742;2022-10-28T15:48:57;7.90;;;6.28;;
65279;SDS011;51878;55.748;48.742;2022-10-28T15:51:26;8.00;;;6.38;;
65279;SDS011;51878;55.748;48.742;2022-10-28T15:53:54;8.45;;;6.80;;
65279;SDS011;51878;55.748;48.742;2022-10-28T15:56:55;8.27;;;6.55;;
65279;SDS011;51878;55.748;48.742;2022-10-28T15:59:23;11.30;;;6.70;;
65279;SDS011;51878;55.748;48.742;2022-10-28T16:01:54;7.13;;;5.43;;
65279;SDS011;51878;55.748;48.742;2022-10-28T16:06:56;8.23;;;6.75;;
65279;SDS011;51878;55.748;48.742;2022-10-28T16:11:59;11.50;;;6.73;;
65279;SDS011;51878;55.748;48.742;2022-10-28T16:14:41;9.63;;;7.28;;
65279;SDS011;51878;55.748;48.742;2022-10-28T16:19:48;8.30;;;6.90;;
65279;SDS011;51878;55.748;48.742;2022-10-28T16:22:22;7.93;;;6.43;;
65279;SDS011;51878;55.748;48.742;2022-10-28T16:24:52;6.97;;;5.68;;
65279;SDS011;51878;55.748;48.742;2022-10-28T16:27:20;7.40;;;6.25;;
65279;SDS011;51878;55.748;48.742;2022-10-28T16:29:48;6.88;;;6.15;;
65279;SDS011;51878;55.748;48.742;2022-10-28T16:32:24;9.05;;;7.22;;
65279;SDS011;51878;55.748;48.742;2022-10-28T16:35:00;7.80;;;6.20;;
65279;SDS011;51878;55.748;48.742;2022-10-28T16:37:29;7.90;;;6.40;;
65279;SDS011;51878;55.748;48.742;2022-10-28T16:40:01;8.02;;;7.07;;
65279;SDS011;51878;55.748;48.742;2022-10-28T16:42:28;9.00;;;6.65;;
65279;SDS011;51878;55.748;48.742;2022-10-28T16:44:55;7.95;;;6.15;;
65279;SDS011;51878;55.748;48.742;2022-10-28T16:47:23;7.35;;;6.03;;
65279;SDS011;51878;55.748;48.742;2022-10-28T16:49:56;11.10;;;6.97;;
65279;SDS011;51878;55.748;48.742;2022-10-28T16:52:24;8.73;;;7.10;;
65279;SDS011;51878;55.748;48.742;2022-10-28T16:54:54;9.73;;;7.40;;
65279;SDS011;51878;55.748;48.742;2022-10-28T16:57:22;7.85;;;6.55;;
65279;SDS011;51878;55.748;48.742;2022-10-28T16:59:54;8.27;;;6.70;;
65279;SDS011;51878;55.748;48.742;2022-10-28T17:04:53;9.43;;;6.88;;
65279;SDS011;51878;55.748;48.742;2022-10-28T17:07:24;9.68;;;7.18;;
65279;SDS011;51878;55.748;48.742;2022-10-28T17:09:52;9.23;;;5.85;;
65279;SDS011;51878;55.748;48.742;2022-10-28T17:12:25;7.32;;;6.35;;
65279;SDS011;51878;55.748;48.742;2022-10-28T17:14:53;6.18;;;5.28;;
65279;SDS011;51878;55.748;48.742;2022-10-28T17:17:20;7.28;;;6.20;;
65279;SDS011;51878;55.748;48.742;2022-10-28T17:19:47;8.23;;;7.15;;
65279;SDS011;51878;55.748;48.742;2022-10-28T17:22:14;8.05;;;6.53;;
65279;SDS011;51878;55.748;48.742;2022-10-28T17:24:41;8.18;;;7.13;;
65279;SDS011;51878;55.748;48.742;2022-10-28T17:27:08;8.15;;;6.53;;
65279;SDS011;51878;55.748;48.742;2022-10-28T17:29:35;13.18;;;6.88;;
65279;SDS011;51878;55.748;48.742;2022-10-28T17:32:05;10.38;;;7.45;;
65279;SDS011;51878;55.748;48.742;2022-10-28T17:34:36;7.88;;;5.90;;
65279;SDS011;51878;55.748;48.742;2022-10-28T17:37:03;9.75;;;6.35;;
65279;SDS011;51878;55.748;48.742;2022-10-28T17:39:30;8.05;;;6.43;;
65279;SDS011;51878;55.748;48.742;2022-10-28T17:41:57;8.25;;;6.75;;
65279;SDS011;51878;55.748;48.742;2022-10-28T17:44:25;8.55;;;7.25;;
65279;SDS011;51878;55.748;48.742;2022-10-28T17:46:52;9.57;;;7.13;;
65279;SDS011;51878;55.748;48.742;2022-10-28T17:49:22;8.05;;;6.90;;
65279;SDS011;51878;55.748;48.742;2022-10-28T17:51:49;9.27;;;6.18;;
65279;SDS011;51878;55.748;48.742;2022-10-28T17:54:17;9.73;;;7.53;;
65279;SDS011;51878;55.748;48.742;2022-10-28T17:56:47;9.30;;;7.57;;
65279;SDS011;51878;55.748;48.742;2022-10-28T17:59:14;11.70;;;8.93;;
65279;SDS011;51878;55.748;48.742;2022-10-28T18:01:41;11.30;;;8.70;;
65279;SDS011;51878;55.748;48.742;2022-10-28T18:04:08;10.48;;;8.75;;
65279;SDS011;51878;55.748;48.742;2022-10-28T18:06:37;10.90;;;8.50;;
65279;SDS011;51878;55.748;48.742;2022-10-28T18:09:08;13.23;;;10.45;;
65279;SDS011;51878;55.748;48.742;2022-10-28T18:11:36;11.82;;;8.27;;
65279;SDS011;51878;55.748;48.742;2022-10-28T18:14:05;12.85;;;10.43;;
65279;SDS011;51878;55.748;48.742;2022-10-28T18:16:32;15.00;;;9.40;;
65279;SDS011;51878;55.748;48.742;2022-10-28T18:19:03;13.40;;;9.77;;